createdAt,value
2023-04-02T00:04:38.109Z,4.20
2023-04-02T00:09:39.053Z,2.75
2023-04-02T00:14:37.235Z,5.25
2023-04-02T00:19:37.777Z,1.85
2023-04-02T00:24:36.198Z,5.72
2023-04-02T00:29:35.802Z,9.65
2023-04-02T00:34:36.138Z,14.68
2023-04-02T00:39:39.176Z,6.97
2023-04-02T00:44:42.835Z,3.38
2023-04-02T00:49:41.470Z,2.80
2023-04-02T00:54:42.514Z,2.97
2023-04-02T00:59:50.022Z,2.50
2023-04-02T01:04:53.445Z,3.88
2023-04-02T01:10:00.425Z,2.83
2023-04-02T01:15:05.027Z,3.60
2023-04-02T01:20:30.061Z,3.58
2023-04-02T01:25:31.754Z,8.07
2023-04-02T01:30:31.694Z,4.32
2023-04-02T01:35:32.198Z,4.85
2023-04-02T01:40:35.763Z,4.82
2023-04-02T01:45:36.174Z,6.70
2023-04-02T01:50:37.377Z,4.70
2023-04-02T01:55:41.095Z,4.07
2023-04-02T02:00:44.593Z,3.95
2023-04-02T02:05:43.375Z,5.72
2023-04-02T02:10:42.141Z,4.85
2023-04-02T02:15:42.003Z,4.35
2023-04-02T02:20:40.335Z,4.25
2023-04-02T02:25:38.802Z,4.40
2023-04-02T02:30:38.610Z,3.25
2023-04-02T02:35:42.514Z,4.00
2023-04-02T02:40:44.544Z,3.45
2023-04-02T02:45:44.066Z,5.55
2023-04-02T02:50:43.897Z,3.67
2023-04-02T02:55:43.216Z,4.07
2023-04-02T03:00:49.279Z,3.50
2023-04-02T03:05:53.423Z,4.32
2023-04-02T03:10:55.285Z,4.57
2023-04-02T03:15:58.483Z,4.13
2023-04-02T03:20:59.793Z,3.47
2023-04-02T03:26:00.002Z,4.53
2023-04-02T03:31:00.948Z,4.13
2023-04-02T03:36:03.996Z,4.18
2023-04-02T03:41:08.103Z,5.22
2023-04-02T03:46:12.979Z,6.40
2023-04-02T03:51:15.741Z,4.50
2023-04-02T03:56:27.695Z,5.28
2023-04-02T04:01:29.813Z,6.20
2023-04-02T04:06:30.607Z,6.60
2023-04-02T04:11:31.928Z,5.47
2023-04-02T04:16:33.172Z,5.55
2023-04-02T04:21:37.433Z,5.40
2023-04-02T04:26:44.149Z,4.95
2023-04-02T04:31:47.171Z,4.50
2023-04-02T04:36:54.442Z,4.68
2023-04-02T04:41:59.086Z,8.07
2023-04-02T04:46:59.842Z,4.93
2023-04-02T04:52:01.052Z,8.13
2023-04-02T04:57:02.202Z,9.45
2023-04-02T05:02:04.448Z,6.88
2023-04-02T05:07:09.915Z,10.48
2023-04-02T05:12:13.277Z,8.32
2023-04-02T05:17:16.378Z,8.88
2023-04-02T05:22:21.392Z,4.63
2023-04-02T05:27:24.181Z,4.97
2023-04-02T05:32:24.210Z,5.30
2023-04-02T05:37:25.374Z,6.35
2023-04-02T05:42:25.761Z,9.48
2023-04-02T05:47:32.324Z,6.60
2023-04-02T05:52:35.198Z,5.90
2023-04-02T05:57:43.184Z,6.50
2023-04-02T06:02:47.992Z,4.72
2023-04-02T06:07:49.561Z,7.43
2023-04-02T06:12:50.721Z,11.23
2023-04-02T06:17:53.325Z,9.95
2023-04-02T06:22:54.378Z,10.43
2023-04-02T06:27:53.842Z,11.00
2023-04-02T06:32:52.819Z,15.05
2023-04-02T06:37:55.307Z,18.25
2023-04-02T06:42:59.855Z,24.55
2023-04-02T06:48:24.994Z,18.52
2023-04-02T06:53:33.191Z,7.78
2023-04-02T06:58:31.694Z,9.63
2023-04-02T07:03:31.677Z,10.15
2023-04-02T07:08:37.402Z,12.52
2023-04-02T07:13:36.367Z,8.18
2023-04-02T07:18:35.143Z,5.97
2023-04-02T07:23:38.060Z,9.15
2023-04-02T07:28:36.327Z,7.55
2023-04-02T07:33:34.475Z,7.75
2023-04-02T07:38:32.671Z,6.47
2023-04-02T07:43:33.929Z,7.90
2023-04-02T07:48:32.302Z,6.97
2023-04-02T07:53:31.648Z,9.15
2023-04-02T07:58:31.605Z,7.30
2023-04-02T08:03:31.405Z,10.23
2023-04-02T08:08:29.790Z,4.97
2023-04-02T08:13:28.100Z,5.60
2023-04-02T08:18:29.285Z,4.10
2023-04-02T08:23:28.993Z,5.72
2023-04-02T08:28:27.300Z,3.92
2023-04-02T08:33:26.228Z,6.00
2023-04-02T08:38:24.701Z,8.45
2023-04-02T08:43:31.439Z,5.22
2023-04-02T08:48:32.721Z,10.10
2023-04-02T08:53:34.972Z,14.55
2023-04-02T08:58:41.413Z,5.20
2023-04-02T09:03:42.744Z,8.25
2023-04-02T09:08:41.181Z,7.22
2023-04-02T09:13:44.482Z,5.75
2023-04-02T09:18:43.907Z,6.93
2023-04-02T09:23:42.076Z,10.70
2023-04-02T09:28:42.714Z,6.78
2023-04-02T09:33:45.047Z,4.03
2023-04-02T09:38:45.423Z,11.93
2023-04-02T09:43:45.133Z,6.13
2023-04-02T09:48:45.665Z,5.40
2023-04-02T09:53:44.856Z,9.05
2023-04-02T09:58:44.113Z,5.93
2023-04-02T10:03:43.775Z,5.40
2023-04-02T10:08:42.912Z,6.05
2023-04-02T10:13:44.663Z,3.20
2023-04-02T10:18:46.676Z,4.63
2023-04-02T10:23:44.991Z,4.30
2023-04-02T10:28:51.010Z,4.05
2023-04-02T10:33:52.099Z,5.40
2023-04-02T10:38:52.283Z,6.03
2023-04-02T10:44:16.641Z,6.95
2023-04-02T10:49:23.070Z,6.60
2023-04-02T10:54:28.832Z,3.58
2023-04-02T10:59:29.040Z,4.25
2023-04-02T11:04:32.319Z,3.72
2023-04-02T11:09:32.092Z,6.47
2023-04-02T11:14:31.005Z,11.65
2023-04-02T11:19:31.016Z,6.22
2023-04-02T11:24:37.654Z,8.85
2023-04-02T11:29:37.478Z,9.65
2023-04-02T11:35:07.478Z,3.65
2023-04-02T11:40:21.137Z,4.32
2023-04-02T11:45:50.107Z,3.05
2023-04-02T11:50:52.050Z,4.78
2023-04-02T11:56:07.725Z,4.80
2023-04-02T12:01:20.864Z,2.37
2023-04-02T12:06:25.801Z,5.07
2023-04-02T12:11:31.614Z,2.85
2023-04-02T12:16:34.237Z,8.80
2023-04-02T12:21:33.834Z,6.82
2023-04-02T12:26:37.151Z,3.30
2023-04-02T12:31:35.661Z,2.88
2023-04-02T12:36:36.191Z,3.83
2023-04-02T12:41:37.593Z,3.58
2023-04-02T12:46:36.408Z,4.63
2023-04-02T12:51:36.836Z,4.25
2023-04-02T12:56:34.973Z,3.45
2023-04-02T13:01:33.990Z,2.85
2023-04-02T13:06:32.521Z,6.82
2023-04-02T13:11:39.285Z,12.60
2023-04-02T13:16:38.194Z,8.52
2023-04-02T13:21:37.580Z,7.50
2023-04-02T13:26:35.753Z,10.63
2023-04-02T13:31:35.581Z,12.38
2023-04-02T13:36:33.917Z,45.38
2023-04-02T13:41:33.177Z,42.03
2023-04-02T13:46:32.389Z,9.82
2023-04-02T13:51:37.327Z,18.92
2023-04-02T13:56:36.216Z,5.30
2023-04-02T14:01:34.675Z,9.15
2023-04-02T14:06:42.370Z,3.90
2023-04-02T14:11:45.434Z,7.63
2023-04-02T14:16:50.922Z,40.33
2023-04-02T14:21:55.774Z,25.38
2023-04-02T14:27:01.667Z,35.80
2023-04-02T14:32:03.389Z,21.67
2023-04-02T14:37:06.985Z,22.13
2023-04-02T14:42:07.798Z,25.00
2023-04-02T14:47:12.565Z,42.05
2023-04-02T14:52:14.681Z,16.58
2023-04-02T14:57:18.903Z,5.03
2023-04-02T15:02:20.214Z,7.47
2023-04-02T15:07:23.262Z,20.40
2023-04-02T15:12:23.168Z,12.32
2023-04-02T15:17:22.099Z,12.88
2023-04-02T15:22:32.858Z,10.57
2023-04-02T15:27:37.209Z,10.23
2023-04-02T15:32:37.761Z,14.45
2023-04-02T15:37:40.744Z,9.30
2023-04-02T15:42:40.169Z,9.32
2023-04-02T15:47:45.146Z,10.70
2023-04-02T15:52:49.946Z,11.30
2023-04-02T15:58:02.453Z,7.43
2023-04-02T16:03:18.470Z,11.85
2023-04-02T16:08:41.970Z,10.02
2023-04-02T16:13:40.818Z,8.25
2023-04-02T16:18:42.578Z,11.95
2023-04-02T16:23:42.897Z,21.95
2023-04-02T16:28:45.666Z,27.30
2023-04-02T16:33:49.652Z,21.65
2023-04-02T16:38:55.153Z,32.57
2023-04-02T16:43:58.170Z,20.13
2023-04-02T16:48:58.390Z,29.95
2023-04-02T16:54:02.667Z,33.22
2023-04-02T16:59:06.813Z,28.42
2023-04-02T17:04:17.812Z,31.50
2023-04-02T17:09:18.924Z,15.63
2023-04-02T17:14:23.040Z,50.03
2023-04-02T17:19:22.051Z,22.73
2023-04-02T17:24:27.696Z,30.67
2023-04-02T17:29:30.001Z,63.10
2023-04-02T17:34:29.268Z,38.05
2023-04-02T17:39:35.895Z,22.63
2023-04-02T17:44:45.647Z,14.95
2023-04-02T17:49:47.951Z,7.80
2023-04-02T17:54:52.991Z,9.07
2023-04-02T18:00:02.254Z,9.23
2023-04-02T18:05:16.187Z,10.13
2023-04-02T18:10:20.446Z,9.63
2023-04-02T18:15:38.641Z,18.08
2023-04-02T18:20:43.117Z,21.48
2023-04-02T18:25:47.484Z,24.40
2023-04-02T18:30:49.071Z,18.13
2023-04-02T18:35:53.701Z,15.70
2023-04-02T18:41:05.083Z,21.58
2023-04-02T18:46:08.928Z,14.60
2023-04-02T18:51:14.517Z,9.13
2023-04-02T18:56:15.526Z,9.48
2023-04-02T19:01:15.621Z,7.93
2023-04-02T19:06:16.477Z,15.55
2023-04-02T19:11:17.392Z,35.30
2023-04-02T19:16:34.268Z,21.50
2023-04-02T19:21:36.540Z,16.08
2023-04-02T19:26:41.403Z,18.35
2023-04-02T19:31:47.803Z,11.77
2023-04-02T19:36:47.786Z,7.13
2023-04-02T19:41:49.024Z,57.15
2023-04-02T19:46:47.515Z,15.13
2023-04-02T19:51:45.760Z,37.88
2023-04-02T19:56:44.059Z,14.43
2023-04-02T20:01:43.637Z,9.05
2023-04-02T20:06:42.020Z,12.38
2023-04-02T20:11:40.176Z,14.57
2023-04-02T20:16:38.829Z,8.68
2023-04-02T20:21:39.129Z,6.55
2023-04-02T20:26:37.617Z,8.02
2023-04-02T20:31:37.913Z,5.47
2023-04-02T20:36:36.159Z,6.78
2023-04-02T20:41:35.689Z,6.68
2023-04-02T20:46:33.880Z,7.82
2023-04-02T20:51:32.482Z,4.70
2023-04-02T20:56:30.645Z,6.60
2023-04-02T21:01:32.255Z,3.65
2023-04-02T21:06:32.654Z,2.92
2023-04-02T21:11:30.868Z,4.10
2023-04-02T21:16:31.926Z,21.50
2023-04-02T21:21:30.839Z,12.82
2023-04-02T21:26:30.935Z,3.05
2023-04-02T21:31:34.251Z,2.60
2023-04-02T21:36:33.762Z,4.28
2023-04-02T21:41:32.478Z,3.10
2023-04-02T21:46:34.668Z,3.65
2023-04-02T21:51:33.961Z,3.67
2023-04-02T21:56:36.045Z,3.20
2023-04-02T22:01:37.237Z,3.47
2023-04-02T22:06:37.710Z,4.43
2023-04-02T22:11:36.811Z,2.33
2023-04-02T22:16:37.030Z,3.38
2023-04-02T22:21:35.204Z,2.60
2023-04-02T22:26:34.271Z,2.65
2023-04-02T22:31:33.526Z,3.35
2023-04-02T22:36:33.234Z,3.15
2023-04-02T22:41:32.107Z,3.90
2023-04-02T22:46:31.087Z,6.20
2023-04-02T22:51:31.334Z,4.60
2023-04-02T22:56:32.916Z,2.67
2023-04-02T23:01:32.306Z,2.83
2023-04-02T23:06:30.678Z,4.45
2023-04-02T23:11:30.357Z,2.55
2023-04-02T23:16:29.861Z,2.70
2023-04-02T23:21:28.352Z,2.75
2023-04-02T23:26:29.381Z,3.22
2023-04-02T23:31:29.482Z,3.40
2023-04-02T23:36:28.639Z,3.00
2023-04-02T23:41:27.225Z,3.25
2023-04-02T23:46:25.962Z,3.63
2023-04-02T23:51:25.979Z,2.45
2023-04-02T23:56:24.237Z,2.50
